Time;durP1;ratioP1;P1;durP2;ratioP2;P2;SDS_P1;SDS_P2;PMS_P1;PMS_P2;Temp;Humidity;BMP_temperature;BMP_pressure;BME280_temperature;BME280_humidity;BME280_pressure;Samples;Min_cycle;Max_cycle;Signal;HPM_P1;HPM_P2
2022/12/11 00:00:22;;;;;;;47.60;19.25;;;0.50;99.90;;;;;;5107391;27;20056;-65
2022/12/11 00:02:48;;;;;;;48.38;19.15;;;0.50;99.90;;;;;;5093699;28;20040;-65
2022/12/11 00:05:13;;;;;;;48.20;20.90;;;0.50;99.90;;;;;;5126025;27;20043;-65
2022/12/11 00:07:39;;;;;;;47.08;19.00;;;0.50;99.90;;;;;;5093840;28;20463;-65
2022/12/11 00:10:05;;;;;;;38.67;17.02;;;0.50;99.90;;;;;;5094455;28;20059;-64
2022/12/11 00:12:31;;;;;;;48.28;19.77;;;0.50;99.90;;;;;;5093898;28;20054;-65
2022/12/11 00:14:57;;;;;;;43.38;18.10;;;0.50;99.90;;;;;;5094350;28;20039;-65
2022/12/11 00:17:22;;;;;;;44.35;17.67;;;0.50;99.90;;;;;;5113070;27;20040;-65
2022/12/11 00:19:48;;;;;;;42.40;17.90;;;0.60;99.90;;;;;;5094367;28;20032;-65
2022/12/11 00:22:15;;;;;;;44.38;17.70;;;0.60;99.90;;;;;;5094614;28;20070;-65
2022/12/11 00:24:41;;;;;;;46.53;18.55;;;0.60;99.90;;;;;;5127142;27;20494;-65
2022/12/11 00:27:07;;;;;;;46.72;18.80;;;0.60;99.90;;;;;;5112478;28;20112;-65
2022/12/11 00:29:32;;;;;;;48.70;18.27;;;0.60;99.90;;;;;;5093985;28;20086;-65
2022/12/11 00:31:58;;;;;;;46.83;18.40;;;0.60;99.90;;;;;;5094085;28;20043;-65
2022/12/11 00:34:24;;;;;;;45.13;17.00;;;0.60;99.90;;;;;;5092254;28;20032;-65
2022/12/11 00:36:49;;;;;;;44.15;17.25;;;0.60;99.90;;;;;;5127073;27;20075;-65
2022/12/11 00:39:15;;;;;;;52.05;19.05;;;0.60;99.90;;;;;;5113212;27;20063;-65
2022/12/11 00:41:41;;;;;;;41.35;18.30;;;0.60;99.90;;;;;;5077159;28;20048;-64
2022/12/11 00:44:06;;;;;;;49.00;19.00;;;0.50;99.90;;;;;;5093136;28;20040;-65
2022/12/11 00:46:32;;;;;;;40.90;17.83;;;0.50;99.90;;;;;;5094135;28;20047;-65
2022/12/11 00:48:58;;;;;;;48.58;17.95;;;0.50;99.90;;;;;;5092650;27;20053;-65
2022/12/11 00:51:24;;;;;;;48.25;17.38;;;0.50;99.90;;;;;;5089814;28;20405;-66
2022/12/11 00:53:50;;;;;;;47.65;18.50;;;0.50;99.90;;;;;;5120162;27;20452;-64
2022/12/11 00:56:18;;;;;;;45.95;18.08;;;0.50;99.90;;;;;;5092377;28;20043;-65
2022/12/11 00:58:45;;;;;;;40.90;18.05;;;0.60;99.90;;;;;;5127568;27;20027;-65
2022/12/11 01:01:14;;;;;;;46.53;18.15;;;0.60;99.90;;;;;;5093356;28;20533;-65
2022/12/11 01:03:39;;;;;;;44.15;18.08;;;0.60;99.90;;;;;;5090364;28;20048;-65
2022/12/11 01:06:06;;;;;;;47.17;18.77;;;0.70;99.90;;;;;;5089432;28;20131;-65
2022/12/11 01:08:32;;;;;;;48.38;18.33;;;0.70;99.90;;;;;;5089340;28;20177;-65
2022/12/11 01:11:06;;;;;;;43.60;18.35;;;0.70;99.90;;;;;;5089723;28;20032;-65
2022/12/11 01:13:32;;;;;;;46.33;18.92;;;0.70;99.90;;;;;;5090074;28;20426;-65
2022/12/11 01:15:58;;;;;;;41.10;16.77;;;0.70;99.90;;;;;;5122985;27;20040;-65
2022/12/11 01:18:25;;;;;;;48.70;19.00;;;0.60;99.90;;;;;;5089829;28;20083;-65
2022/12/11 01:20:51;;;;;;;43.38;18.10;;;0.70;99.90;;;;;;5088586;28;20502;-65
2022/12/11 01:23:17;;;;;;;46.72;17.40;;;0.70;99.90;;;;;;5120482;27;20048;-65
2022/12/11 01:25:42;;;;;;;44.97;17.95;;;0.70;99.90;;;;;;5090945;28;20043;-64
2022/12/11 01:28:09;;;;;;;45.47;18.10;;;0.70;99.90;;;;;;5088328;28;20342;-65
2022/12/11 01:30:35;;;;;;;42.25;17.00;;;0.70;99.90;;;;;;5090016;28;20555;-65
2022/12/11 01:33:01;;;;;;;47.45;18.35;;;0.70;99.90;;;;;;5093466;28;20035;-65
2022/12/11 01:35:27;;;;;;;48.47;19.70;;;0.70;99.90;;;;;;5088199;28;20055;-64
2022/12/11 01:37:53;;;;;;;45.40;17.58;;;0.70;99.90;;;;;;5089704;28;20047;-65
2022/12/11 01:40:19;;;;;;;46.10;18.90;;;0.70;99.90;;;;;;5089893;28;20036;-64
2022/12/11 01:42:45;;;;;;;46.05;18.33;;;0.70;99.90;;;;;;5090031;28;20062;-65
2022/12/11 01:45:23;;;;;;;51.22;19.50;;;0.60;99.90;;;;;;5089865;28;20028;-64
2022/12/11 01:48:04;;;;;;;48.78;18.33;;;0.70;99.90;;;;;;5089560;28;20128;-65
2022/12/11 01:50:33;;;;;;;50.72;18.95;;;0.70;99.90;;;;;;5090139;28;20089;-64
2022/12/11 01:52:58;;;;;;;49.65;18.40;;;0.70;99.90;;;;;;5074287;28;20046;-64
2022/12/11 01:55:24;;;;;;;47.92;19.10;;;0.70;99.90;;;;;;5069253;28;20052;-64
2022/12/11 01:57:52;;;;;;;47.08;18.80;;;0.70;99.90;;;;;;5072703;28;20501;-64
2022/12/11 02:00:19;;;;;;;47.47;18.83;;;0.70;99.90;;;;;;5087420;28;20483;-64
2022/12/11 02:02:44;;;;;;;42.40;17.92;;;0.80;99.90;;;;;;5122175;27;20115;-64
2022/12/11 02:05:11;;;;;;;53.13;19.63;;;0.80;99.90;;;;;;5086818;28;20739;-65
2022/12/11 02:07:49;;;;;;;55.42;20.38;;;0.80;99.90;;;;;;5086607;28;20043;-64
2022/12/11 02:10:15;;;;;;;52.88;19.05;;;0.80;99.90;;;;;;5088839;28;20470;-64
2022/12/11 02:12:52;;;;;;;52.35;18.73;;;0.80;99.90;;;;;;5085485;28;20123;-65
2022/12/11 02:15:26;;;;;;;50.50;19.00;;;0.80;99.90;;;;;;5089646;28;20127;-64
2022/12/11 02:18:34;;;;;;;48.33;18.33;;;0.80;99.90;;;;;;5079119;28;20051;-64
2022/12/11 02:21:12;;;;;;;47.15;18.02;;;0.80;99.90;;;;;;5019630;28;20041;-64
2022/12/11 02:24:14;;;;;;;53.85;19.20;;;0.80;99.90;;;;;;5027879;28;20049;-64
2022/12/11 02:26:56;;;;;;;52.38;19.52;;;0.80;99.90;;;;;;5021430;28;20049;-64
2022/12/11 02:29:37;;;;;;;47.95;19.73;;;0.80;99.90;;;;;;5038645;28;20045;-64
2022/12/11 02:32:16;;;;;;;54.78;19.20;;;0.80;99.90;;;;;;5011592;28;20049;-65
2022/12/11 02:34:50;;;;;;;47.08;18.73;;;0.80;99.90;;;;;;5021780;28;20387;-65
2022/12/11 02:37:21;;;;;;;50.13;19.52;;;0.80;99.90;;;;;;5031305;28;20079;-64
2022/12/11 02:39:50;;;;;;;45.83;18.23;;;0.80;99.90;;;;;;5011148;28;20058;-64
2022/12/11 02:42:18;;;;;;;48.67;19.23;;;0.80;99.90;;;;;;5011209;28;20046;-64
2022/12/11 02:44:47;;;;;;;49.63;19.45;;;0.80;99.90;;;;;;5011438;28;20057;-64
2022/12/11 02:47:15;;;;;;;51.08;19.45;;;0.80;99.90;;;;;;5013659;28;20041;-64
2022/12/11 02:49:43;;;;;;;46.88;18.83;;;0.80;99.90;;;;;;5001486;28;20049;-64
2022/12/11 02:52:11;;;;;;;46.78;19.05;;;0.90;99.90;;;;;;5035081;28;20120;-63
2022/12/11 02:54:38;;;;;;;52.40;19.75;;;0.90;99.90;;;;;;5034774;28;20044;-65
2022/12/11 02:57:15;;;;;;;51.88;19.75;;;0.90;99.90;;;;;;5074215;28;20087;-65
2022/12/11 02:59:44;;;;;;;54.60;20.55;;;0.90;99.90;;;;;;5092641;28;20086;-65
2022/12/11 03:02:12;;;;;;;52.88;19.35;;;0.90;99.90;;;;;;5093206;28;20040;-63
2022/12/11 03:04:38;;;;;;;52.90;19.98;;;0.90;99.90;;;;;;5090433;28;20048;-65
2022/12/11 03:07:12;;;;;;;52.42;19.80;;;0.90;99.90;;;;;;5092963;28;20393;-65
2022/12/11 03:09:43;;;;;;;50.13;19.00;;;0.90;99.90;;;;;;5126948;27;20063;-65
2022/12/11 03:12:13;;;;;;;47.58;19.25;;;0.90;99.90;;;;;;5075811;28;20078;-64
2022/12/11 03:14:41;;;;;;;54.10;20.63;;;0.90;99.90;;;;;;5092453;28;20044;-63
2022/12/11 03:17:22;;;;;;;54.25;20.60;;;0.90;99.90;;;;;;5092170;28;20115;-64
2022/12/11 03:19:55;;;;;;;52.25;20.15;;;1.00;99.90;;;;;;5092369;28;20410;-64
2022/12/11 03:22:30;;;;;;;56.17;20.30;;;1.00;99.90;;;;;;5086924;28;20036;-64
2022/12/11 03:25:03;;;;;;;50.03;19.77;;;1.00;99.90;;;;;;5091372;28;20074;-64
2022/12/11 03:27:38;;;;;;;56.15;20.80;;;1.00;99.90;;;;;;5092467;28;20055;-64
2022/12/11 03:30:11;;;;;;;52.30;20.60;;;1.00;99.90;;;;;;5092356;28;20040;-64
2022/12/11 03:32:38;;;;;;;;;;;1.00;99.90;;;;;;5092785;28;20131;-64
2022/12/11 03:35:13;;;;;;;58.70;22.08;;;1.00;99.90;;;;;;5092522;28;20375;-64
2022/12/11 03:37:41;;;;;;;54.40;20.33;;;1.00;99.90;;;;;;5092068;28;20047;-64
2022/12/11 03:40:12;;;;;;;56.67;20.17;;;1.00;99.90;;;;;;5093477;28;20089;-64
2022/12/11 03:42:38;;;;;;;55.15;20.83;;;1.00;99.90;;;;;;5092107;28;20131;-64
2022/12/11 03:45:07;;;;;;;49.55;19.85;;;1.00;99.90;;;;;;5092002;28;20122;-65
2022/12/11 03:47:33;;;;;;;52.63;20.92;;;1.10;99.90;;;;;;5126170;27;20054;-64
2022/12/11 03:50:01;;;;;;;53.88;19.90;;;1.10;99.90;;;;;;5092011;28;20043;-64
2022/12/11 03:52:28;;;;;;;53.30;20.23;;;1.10;99.90;;;;;;5092045;28;20048;-65
2022/12/11 03:54:58;;;;;;;55.58;20.45;;;1.10;99.90;;;;;;5091833;28;20062;-64
2022/12/11 03:57:29;;;;;;;47.63;19.05;;;1.10;99.90;;;;;;5091714;28;20036;-64
2022/12/11 03:59:56;;;;;;;55.50;21.60;;;1.00;99.90;;;;;;5091179;28;20047;-64
2022/12/11 04:02:22;;;;;;;58.67;21.17;;;1.10;99.90;;;;;;5093338;28;20114;-65
2022/12/11 04:04:48;;;;;;;62.58;22.17;;;1.00;99.90;;;;;;5091521;28;20135;-63
2022/12/11 04:07:13;;;;;;;59.60;22.90;;;1.00;99.90;;;;;;5074246;28;20052;-64
2022/12/11 04:09:39;;;;;;;52.92;20.88;;;1.00;99.90;;;;;;5092007;28;20444;-64
2022/12/11 04:12:05;;;;;;;49.53;20.65;;;1.00;99.90;;;;;;5091331;28;20103;-65
2022/12/11 04:24:13;;;;;;;49.90;20.83;;;1.00;99.90;;;;;;5091296;28;20365;-65
2022/12/11 04:26:18;;;;;;;49.67;18.95;;;1.00;99.90;;;;;;5033493;28;20057;-64
2022/12/11 04:28:45;;;;;;;48.72;19.35;;;1.00;99.90;;;;;;5028338;28;20124;-65
2022/12/11 04:31:13;;;;;;;55.13;20.42;;;1.00;99.90;;;;;;5031842;28;20045;-64
2022/12/11 04:33:39;;;;;;;53.05;19.00;;;1.00;99.90;;;;;;5033325;28;20043;-64
2022/12/11 04:36:05;;;;;;;54.35;19.52;;;1.00;99.90;;;;;;5033212;28;20566;-64
2022/12/11 04:38:30;;;;;;;51.38;19.20;;;1.00;99.90;;;;;;5033085;28;20044;-65
2022/12/11 04:41:01;;;;;;;51.33;19.05;;;1.00;99.90;;;;;;5033168;28;20043;-65
2022/12/11 04:43:27;;;;;;;48.13;18.25;;;1.00;99.90;;;;;;5033171;28;20040;-64
2022/12/11 04:46:03;;;;;;;50.10;19.63;;;1.10;99.90;;;;;;5033319;28;20582;-64
2022/12/11 04:48:29;;;;;;;50.40;18.63;;;1.10;99.90;;;;;;5033241;28;20044;-64
2022/12/11 04:50:54;;;;;;;58.00;20.45;;;1.10;99.90;;;;;;5032930;28;20098;-65
2022/12/11 04:53:20;;;;;;;47.70;19.60;;;1.10;99.90;;;;;;5032685;28;20052;-65
2022/12/11 04:55:46;;;;;;;47.58;18.85;;;1.10;99.90;;;;;;5032834;28;20051;-64
2022/12/11 04:58:11;;;;;;;52.40;19.88;;;1.10;99.90;;;;;;5089278;28;20095;-65
2022/12/11 05:00:38;;;;;;;47.38;20.20;;;1.10;99.90;;;;;;5090695;28;20073;-65
2022/12/11 05:03:04;;;;;;;50.90;21.63;;;1.10;99.90;;;;;;5073593;28;20119;-65
2022/12/11 05:05:30;;;;;;;50.20;20.88;;;1.10;99.90;;;;;;5093651;28;20155;-64
2022/12/11 05:07:55;;;;;;;45.40;19.23;;;1.10;99.90;;;;;;5094129;28;20043;-64
2022/12/11 05:10:21;;;;;;;48.33;20.27;;;1.10;99.90;;;;;;5093328;28;20047;-64
2022/12/11 05:12:47;;;;;;;51.90;18.98;;;1.10;99.90;;;;;;5093817;28;20390;-64
2022/12/11 05:15:12;;;;;;;45.80;19.20;;;1.10;99.90;;;;;;5093412;28;20044;-64
2022/12/11 05:17:38;;;;;;;51.67;19.25;;;1.10;99.90;;;;;;5093489;28;20071;-64
2022/12/11 05:20:04;;;;;;;46.58;19.00;;;1.00;99.90;;;;;;5093695;28;20035;-64
2022/12/11 05:22:30;;;;;;;49.45;19.30;;;1.00;99.90;;;;;;5093602;28;20032;-65
2022/12/11 05:24:56;;;;;;;49.65;19.90;;;1.00;99.90;;;;;;5128285;27;20486;-64
2022/12/11 05:27:22;;;;;;;47.35;19.33;;;1.00;99.90;;;;;;5093115;28;20031;-65
2022/12/11 05:29:47;;;;;;;47.95;18.55;;;1.00;99.90;;;;;;5093378;28;20366;-65
2022/12/11 05:32:13;;;;;;;45.65;19.65;;;1.00;99.90;;;;;;5076634;28;20120;-66
2022/12/11 05:34:39;;;;;;;53.00;19.38;;;1.00;99.90;;;;;;5127280;27;20042;-66
2022/12/11 05:37:04;;;;;;;43.08;18.00;;;1.00;99.90;;;;;;5093051;28;20118;-66
2022/12/11 05:39:30;;;;;;;43.38;18.10;;;1.00;99.90;;;;;;5110509;28;20035;-66
2022/12/11 05:41:56;;;;;;;51.00;18.02;;;1.00;99.90;;;;;;5076135;28;20043;-66
2022/12/11 05:44:22;;;;;;;49.90;19.20;;;0.90;99.90;;;;;;5093117;28;20723;-66
2022/12/11 05:46:48;;;;;;;48.22;18.60;;;0.90;99.90;;;;;;5111413;28;20099;-66
2022/12/11 05:49:14;;;;;;;43.58;17.20;;;0.90;99.90;;;;;;5126951;27;20124;-66
2022/12/11 05:51:40;;;;;;;50.03;19.55;;;0.90;99.90;;;;;;5093046;28;20463;-65
2022/12/11 05:54:05;;;;;;;45.78;17.90;;;0.90;99.90;;;;;;5076094;28;20039;-66
2022/12/11 05:56:33;;;;;;;48.03;18.33;;;0.90;99.90;;;;;;5092736;28;20036;-66
2022/12/11 05:59:00;;;;;;;45.60;18.23;;;1.00;99.90;;;;;;5093286;28;20035;-65
2022/12/11 06:01:29;;;;;;;47.15;18.80;;;1.00;99.90;;;;;;5075227;28;20048;-65
2022/12/11 06:03:56;;;;;;;52.35;20.67;;;1.00;99.90;;;;;;5092778;28;20044;-65
2022/12/11 06:06:23;;;;;;;48.20;18.75;;;0.90;99.90;;;;;;5092661;28;20577;-65
2022/12/11 06:08:50;;;;;;;48.03;18.42;;;0.90;99.90;;;;;;5093148;28;20027;-67
2022/12/11 06:11:15;;;;;;;43.95;17.23;;;1.00;99.90;;;;;;5127208;27;20038;-65
2022/12/11 06:13:41;;;;;;;49.72;17.40;;;0.90;99.90;;;;;;5092963;28;20043;-66
2022/12/11 06:16:08;;;;;;;51.33;18.83;;;0.90;99.90;;;;;;5088876;28;20032;-66
2022/12/11 06:18:39;;;;;;;54.85;18.77;;;0.90;99.90;;;;;;5109719;28;20040;-65
2022/12/11 06:21:16;;;;;;;54.30;20.50;;;0.90;99.90;;;;;;5125029;27;20040;-65
2022/12/11 06:23:43;;;;;;;44.83;17.60;;;0.90;99.90;;;;;;5126700;28;20068;-65
2022/12/11 06:26:10;;;;;;;48.42;18.77;;;0.90;99.90;;;;;;5126735;28;20040;-65
2022/12/11 06:28:36;;;;;;;48.38;17.85;;;0.90;99.90;;;;;;5092276;28;20401;-65
2022/12/11 06:31:02;;;;;;;52.20;19.58;;;1.00;99.90;;;;;;5110925;28;20127;-65
2022/12/11 06:33:29;;;;;;;48.78;18.42;;;0.90;99.90;;;;;;5092167;28;20130;-65
2022/12/11 06:35:54;;;;;;;48.05;18.98;;;0.90;99.90;;;;;;5092458;28;20043;-65
2022/12/11 06:38:20;;;;;;;47.78;19.20;;;0.90;99.90;;;;;;5092412;28;20539;-66
2022/12/11 06:40:53;;;;;;;51.00;19.75;;;0.90;99.90;;;;;;5092233;28;20428;-66
2022/12/11 06:43:18;;;;;;;48.05;18.98;;;0.90;99.90;;;;;;5126344;28;20042;-65
2022/12/11 06:45:44;;;;;;;48.53;18.20;;;0.90;99.90;;;;;;5092405;28;20409;-65
2022/12/11 06:48:09;;;;;;;46.50;19.17;;;0.90;99.90;;;;;;5092433;28;20171;-66
2022/12/11 06:50:37;;;;;;;49.95;19.88;;;0.90;99.90;;;;;;5092507;28;20478;-66
2022/12/11 06:53:02;;;;;;;47.80;18.45;;;0.90;99.90;;;;;;5092511;28;20090;-65
2022/12/11 06:55:28;;;;;;;46.40;18.02;;;0.90;99.90;;;;;;5092471;28;20059;-65
2022/12/11 06:57:54;;;;;;;52.17;20.20;;;0.90;99.90;;;;;;5092382;28;20168;-65
2022/12/11 07:00:19;;;;;;;52.00;19.05;;;0.90;99.90;;;;;;5092282;28;20047;-65
2022/12/11 07:02:45;;;;;;;47.53;18.83;;;0.90;99.90;;;;;;5092190;28;20044;-66
2022/12/11 07:05:11;;;;;;;54.15;20.02;;;0.90;99.90;;;;;;5110455;28;20047;-66
2022/12/11 07:07:36;;;;;;;52.30;19.40;;;1.00;99.90;;;;;;5092307;28;20397;-64
2022/12/11 07:10:03;;;;;;;52.53;19.60;;;1.00;99.90;;;;;;5092384;28;20043;-65
2022/12/11 07:12:28;;;;;;;52.00;18.60;;;1.00;99.90;;;;;;5092063;28;20039;-66
2022/12/11 07:14:54;;;;;;;48.35;18.55;;;1.00;99.90;;;;;;5091969;28;20046;-65
2022/12/11 07:17:20;;;;;;;50.03;19.35;;;1.00;99.90;;;;;;5090923;28;20181;-65
2022/12/11 07:19:45;;;;;;;52.00;18.88;;;0.90;99.90;;;;;;5074010;28;20043;-65
2022/12/11 07:22:11;;;;;;;48.13;18.85;;;1.00;99.90;;;;;;5091878;28;20118;-66
2022/12/11 07:24:36;;;;;;;50.20;19.20;;;1.00;99.90;;;;;;5091211;28;20140;-66
2022/12/11 07:27:03;;;;;;;51.35;19.92;;;1.00;99.90;;;;;;5125820;28;20118;-65
2022/12/11 07:29:29;;;;;;;55.97;21.05;;;1.00;99.90;;;;;;5124874;28;20055;-65
2022/12/11 07:31:54;;;;;;;50.58;19.73;;;1.00;99.90;;;;;;5091610;28;20127;-65
2022/12/11 07:34:20;;;;;;;46.35;18.52;;;1.00;99.90;;;;;;5095066;28;20050;-66
2022/12/11 07:36:46;;;;;;;53.50;19.58;;;1.00;99.90;;;;;;5094167;28;20055;-65
2022/12/11 07:39:12;;;;;;;47.35;19.80;;;1.10;99.90;;;;;;5094997;28;20031;-65
2022/12/11 07:41:38;;;;;;;50.45;19.10;;;1.10;99.90;;;;;;5111248;28;20043;-65
2022/12/11 07:44:04;;;;;;;48.03;18.42;;;1.10;99.90;;;;;;5094610;28;20123;-65
2022/12/11 07:46:31;;;;;;;46.88;19.58;;;1.20;99.90;;;;;;5129251;27;20125;-65
2022/12/11 07:48:59;;;;;;;46.58;19.50;;;1.20;99.90;;;;;;5077520;28;20058;-65
2022/12/11 07:51:29;;;;;;;50.15;20.95;;;1.30;99.90;;;;;;5094363;28;20051;-65
2022/12/11 07:53:58;;;;;;;46.72;19.65;;;1.20;99.90;;;;;;5094357;28;20116;-65
2022/12/11 07:56:24;;;;;;;47.80;20.17;;;1.20;99.90;;;;;;5128985;27;20109;-65
2022/12/11 07:58:49;;;;;;;45.95;19.33;;;1.20;99.90;;;;;;5094634;28;20040;-65
2022/12/11 08:01:20;;;;;;;47.90;19.55;;;1.20;99.90;;;;;;5094241;28;20104;-65
2022/12/11 08:03:47;;;;;;;52.20;19.13;;;1.20;99.90;;;;;;5087909;28;20445;-65
2022/12/11 08:06:13;;;;;;;50.83;19.98;;;1.20;99.90;;;;;;5118720;27;20498;-65
2022/12/11 08:08:40;;;;;;;48.83;18.92;;;1.20;99.90;;;;;;5091004;28;20051;-65
2022/12/11 08:11:09;;;;;;;45.78;18.30;;;1.20;99.90;;;;;;5089851;28;20073;-65
2022/12/11 08:13:35;;;;;;;50.38;19.33;;;1.20;99.90;;;;;;5090903;28;20048;-65
2022/12/11 08:16:06;;;;;;;41.13;18.77;;;1.20;99.90;;;;;;5124749;27;20040;-66
2022/12/11 08:18:33;;;;;;;51.92;19.23;;;1.10;99.90;;;;;;5091303;28;20599;-65
2022/12/11 08:21:20;;;;;;;48.67;19.70;;;1.10;99.90;;;;;;5093926;28;20092;-66
2022/12/11 08:23:46;;;;;;;47.78;19.23;;;1.10;99.90;;;;;;5087595;28;20032;-65
2022/12/11 08:26:18;;;;;;;48.65;19.02;;;1.10;99.90;;;;;;5091580;28;20551;-66
2022/12/11 08:28:43;;;;;;;47.70;19.00;;;1.10;99.90;;;;;;5091525;28;20123;-66
2022/12/11 08:31:10;;;;;;;44.17;18.98;;;1.10;99.90;;;;;;5091288;28;20357;-65
2022/12/11 08:33:37;;;;;;;49.38;19.92;;;1.20;99.90;;;;;;5091399;28;20107;-65
2022/12/11 08:36:08;;;;;;;47.15;19.85;;;1.20;99.90;;;;;;5091366;28;20036;-65
2022/12/11 08:38:34;;;;;;;45.65;19.33;;;1.30;99.90;;;;;;5091282;28;20105;-65
2022/12/11 08:41:10;;;;;;;42.90;18.55;;;1.30;99.90;;;;;;5092390;28;20032;-65
2022/12/11 08:43:37;;;;;;;44.67;18.60;;;1.40;99.90;;;;;;5091117;28;20095;-65
2022/12/11 08:46:02;;;;;;;42.72;17.92;;;1.40;99.90;;;;;;5090821;28;20047;-65
2022/12/11 08:48:28;;;;;;;51.53;20.20;;;1.50;99.90;;;;;;5091225;28;20366;-65
2022/12/11 08:50:54;;;;;;;41.03;17.17;;;1.50;99.90;;;;;;5091057;28;20040;-65
2022/12/11 08:53:19;;;;;;;48.03;18.20;;;1.50;99.90;;;;;;5092390;28;20043;-65
2022/12/11 08:55:45;;;;;;;46.65;19.23;;;1.40;99.90;;;;;;5090857;28;20036;-65
2022/12/11 08:58:12;;;;;;;46.90;19.48;;;1.30;99.90;;;;;;5090974;28;20075;-65
2022/12/11 09:00:37;;;;;;;42.38;18.15;;;1.30;99.90;;;;;;5091081;28;20082;-65
2022/12/11 09:03:03;;;;;;;48.22;19.98;;;1.30;99.90;;;;;;5092138;28;20063;-65
2022/12/11 09:05:29;;;;;;;49.28;19.98;;;1.40;99.90;;;;;;5094064;28;20055;-65
2022/12/11 09:07:54;;;;;;;49.08;19.98;;;1.40;99.90;;;;;;5128418;27;20054;-65
2022/12/11 09:10:20;;;;;;;43.15;18.58;;;1.40;99.90;;;;;;5094421;28;20494;-66
2022/12/11 09:12:45;;;;;;;48.83;19.83;;;1.40;99.90;;;;;;5094444;28;20047;-66
2022/12/11 09:15:11;;;;;;;46.17;20.05;;;1.50;99.90;;;;;;5094019;28;20047;-66
2022/12/11 09:17:37;;;;;;;47.25;19.23;;;1.50;99.90;;;;;;5094001;28;20036;-65
2022/12/11 09:20:03;;;;;;;42.95;17.60;;;1.50;99.90;;;;;;5093716;28;20391;-65
2022/12/11 09:22:32;;;;;;;44.55;19.02;;;1.50;99.90;;;;;;5128302;27;20390;-65
2022/12/11 09:24:57;;;;;;;44.58;18.30;;;1.60;99.90;;;;;;5076479;28;20047;-65
2022/12/11 09:27:23;;;;;;;44.33;18.70;;;1.60;99.90;;;;;;5093643;28;20490;-65
2022/12/11 09:29:49;;;;;;;44.30;18.55;;;1.60;99.90;;;;;;5093863;28;20045;-65
2022/12/11 09:32:14;;;;;;;49.47;19.27;;;1.50;99.90;;;;;;5093956;28;20067;-65
2022/12/11 09:34:40;;;;;;;44.53;19.13;;;1.50;99.90;;;;;;5094226;28;20039;-66
2022/12/11 09:37:05;;;;;;;42.53;16.35;;;1.50;99.90;;;;;;5093617;28;20040;-65
2022/12/11 09:39:31;;;;;;;45.40;18.23;;;1.50;99.90;;;;;;5093866;28;20027;-65
2022/12/11 09:42:17;;;;;;;43.88;17.17;;;1.50;99.90;;;;;;5093714;28;20559;-65
2022/12/11 09:44:50;;;;;;;43.63;17.27;;;1.40;99.90;;;;;;5093803;28;20031;-66
2022/12/11 09:47:48;;;;;;;41.13;18.10;;;1.40;99.90;;;;;;5093390;28;20039;-65
2022/12/11 09:50:31;;;;;;;43.20;17.13;;;1.40;99.90;;;;;;5076386;28;20039;-65
2022/12/11 09:53:25;;;;;;;43.88;17.63;;;1.50;99.90;;;;;;5086742;28;20367;-65
2022/12/11 09:56:06;;;;;;;44.60;18.95;;;1.50;99.90;;;;;;5091764;28;20078;-65
2022/12/11 09:58:53;;;;;;;46.53;19.42;;;1.50;99.90;;;;;;5093182;28;20032;-65
2022/12/11 10:01:36;;;;;;;42.22;18.00;;;1.50;99.90;;;;;;5093333;28;20045;-66
2022/12/11 10:04:14;;;;;;;49.80;18.83;;;1.50;99.90;;;;;;5076097;28;20054;-66
2022/12/11 10:07:01;;;;;;;49.72;19.45;;;1.50;99.90;;;;;;5093055;28;20466;-65
2022/12/11 10:10:01;;;;;;;47.15;17.38;;;1.50;99.90;;;;;;5093127;28;20046;-66
2022/12/11 10:12:51;;;;;;;43.10;18.10;;;1.50;99.90;;;;;;5093050;28;20139;-65
2022/12/11 10:15:42;;;;;;;44.70;18.55;;;1.40;99.90;;;;;;5093080;28;20081;-65
2022/12/11 10:18:21;;;;;;;47.08;19.55;;;1.40;99.90;;;;;;5076359;28;20081;-65
2022/12/11 10:20:49;;;;;;;49.10;18.90;;;1.50;99.90;;;;;;5127292;27;20084;-65
2022/12/11 10:23:23;;;;;;;45.70;18.50;;;1.40;99.90;;;;;;5127123;28;20046;-65
2022/12/11 10:25:55;;;;;;;43.95;17.83;;;1.40;99.90;;;;;;5127321;28;20418;-66
2022/12/11 10:28:21;;;;;;;43.65;18.60;;;1.40;99.90;;;;;;5092802;28;20047;-65
2022/12/11 10:31:04;;;;;;;43.30;17.70;;;1.50;99.90;;;;;;5093148;28;20043;-66
2022/12/11 10:33:52;;;;;;;41.80;18.05;;;1.50;99.90;;;;;;5092948;28;20118;-66
2022/12/11 10:36:30;;;;;;;48.55;19.55;;;1.50;99.90;;;;;;5092642;28;20047;-66
2022/12/11 10:38:56;;;;;;;44.60;18.55;;;1.50;99.90;;;;;;5092801;28;20114;-66
2022/12/11 10:41:30;;;;;;;45.03;18.45;;;1.50;99.90;;;;;;5092695;28;20050;-65
2022/12/11 10:43:55;;;;;;;45.88;19.63;;;1.50;99.90;;;;;;5126931;28;20042;-65
2022/12/11 10:46:24;;;;;;;43.47;19.20;;;1.50;99.90;;;;;;5092682;28;20052;-65
2022/12/11 10:48:52;;;;;;;44.17;18.85;;;1.50;99.90;;;;;;5092660;28;20039;-65
2022/12/11 10:51:21;;;;;;;48.85;19.25;;;1.50;99.90;;;;;;5127010;28;20028;-66
2022/12/11 10:53:55;;;;;;;44.05;19.08;;;1.50;99.90;;;;;;5092803;28;20047;-64
2022/12/11 10:56:30;;;;;;;47.17;18.45;;;1.60;99.90;;;;;;5126487;28;20131;-65
2022/12/11 10:58:57;;;;;;;52.25;20.42;;;1.50;99.90;;;;;;5092771;28;20470;-65
2022/12/11 11:01:26;;;;;;;48.08;19.42;;;1.60;99.90;;;;;;5092953;28;20127;-65
2022/12/11 11:04:22;;;;;;;50.03;22.77;;;1.60;99.90;;;;;;5092383;28;20105;-65
2022/12/11 11:06:59;;;;;;;51.28;21.35;;;1.60;99.90;;;;;;5092655;28;20115;-65
2022/12/11 11:09:35;;;;;;;53.30;20.35;;;1.60;99.90;;;;;;5096516;28;20055;-65
2022/12/11 11:12:01;;;;;;;43.65;19.70;;;1.50;99.90;;;;;;5096534;28;20418;-65
2022/12/11 11:14:28;;;;;;;49.70;21.30;;;1.50;99.90;;;;;;5113532;28;20551;-65
2022/12/11 11:16:59;;;;;;;49.92;20.88;;;1.50;99.90;;;;;;5130256;27;20067;-65
2022/12/11 11:19:34;;;;;;;44.05;19.08;;;1.50;99.90;;;;;;5096245;28;20047;-65
2022/12/11 11:22:06;;;;;;;47.92;20.45;;;1.50;99.90;;;;;;5130725;27;20084;-65
2022/12/11 11:24:43;;;;;;;45.27;18.37;;;1.50;99.90;;;;;;5079532;28;20043;-65
2022/12/11 11:27:24;;;;;;;43.60;18.55;;;1.50;99.90;;;;;;5096207;28;20289;-65
2022/12/11 11:30:07;;;;;;;43.15;19.35;;;1.60;99.90;;;;;;5079352;28;20126;-66
2022/12/11 11:32:38;;;;;;;42.67;17.88;;;1.60;99.90;;;;;;5095934;28;20102;-65
2022/12/11 11:35:12;;;;;;;45.03;19.25;;;1.70;99.90;;;;;;5114361;28;20032;-65
2022/12/11 11:37:45;;;;;;;51.47;21.92;;;1.70;99.90;;;;;;5112516;28;20044;-64
2022/12/11 11:40:21;;;;;;;51.05;21.50;;;1.60;99.90;;;;;;5092536;27;20059;-66
2022/12/11 11:43:19;;;;;;;47.28;20.23;;;1.60;99.90;;;;;;5128342;27;20084;-65
2022/12/11 11:46:05;;;;;;;48.33;19.95;;;1.60;99.90;;;;;;5094643;28;20047;-66
2022/12/11 11:48:57;;;;;;;43.38;18.60;;;1.60;99.90;;;;;;5112661;28;20130;-66
2022/12/11 11:51:33;;;;;;;46.30;20.00;;;1.60;99.90;;;;;;5095630;28;20073;-65
2022/12/11 11:54:07;;;;;;;47.33;20.40;;;1.60;99.90;;;;;;5129726;27;20114;-65
2022/12/11 11:56:36;;;;;;;46.65;20.63;;;1.60;99.90;;;;;;5095901;28;20482;-65
2022/12/11 11:59:20;;;;;;;48.70;20.80;;;1.60;99.90;;;;;;5114048;28;20039;-66
2022/12/11 12:01:46;;;;;;;44.13;18.70;;;1.60;99.90;;;;;;5095402;28;20139;-65
2022/12/11 12:04:13;;;;;;;52.35;21.35;;;1.60;99.90;;;;;;5091719;28;20415;-66
2022/12/11 12:06:47;;;;;;;51.10;20.33;;;1.60;99.90;;;;;;5092015;28;20048;-65
2022/12/11 12:09:51;;;;;;;45.70;19.75;;;1.60;99.90;;;;;;5075177;28;20086;-65
2022/12/11 12:12:42;;;;;;;48.33;21.35;;;1.60;99.90;;;;;;5089946;28;20410;-65
2022/12/11 12:15:29;;;;;;;46.33;19.67;;;1.60;99.90;;;;;;5091753;28;20036;-65
2022/12/11 12:18:19;;;;;;;43.58;19.60;;;1.60;99.90;;;;;;5091765;28;20052;-65
2022/12/11 12:20:52;;;;;;;40.95;18.45;;;1.70;99.90;;;;;;5091114;28;20486;-66
2022/12/11 12:23:43;;;;;;;45.80;20.38;;;1.80;99.90;;;;;;5091764;28;20486;-65
2022/12/11 12:26:31;;;;;;;42.38;20.13;;;1.70;99.90;;;;;;5091666;28;20050;-65
2022/12/11 12:29:12;;;;;;;42.47;19.45;;;1.60;99.90;;;;;;5091601;28;20451;-65
2022/12/11 12:32:03;;;;;;;40.70;18.92;;;1.70;99.90;;;;;;5091681;28;20043;-65
2022/12/11 12:34:49;;;;;;;44.92;20.55;;;1.70;99.90;;;;;;5103093;28;20491;-65
2022/12/11 12:37:30;;;;;;;36.60;18.77;;;1.70;99.90;;;;;;5125569;27;20122;-65
2022/12/11 12:40:02;;;;;;;41.60;19.42;;;1.70;99.90;;;;;;5092553;28;20384;-65
2022/12/11 12:42:56;;;;;;;38.63;20.52;;;1.80;99.90;;;;;;5071185;28;20135;-65
2022/12/11 12:45:40;;;;;;;38.58;19.83;;;1.80;99.90;;;;;;5073940;28;20076;-65
2022/12/11 12:48:08;;;;;;;41.03;19.40;;;1.70;99.90;;;;;;5090927;28;20040;-65
2022/12/11 12:50:41;;;;;;;37.95;19.83;;;1.60;99.90;;;;;;5091078;28;20044;-65
2022/12/11 12:53:14;;;;;;;38.40;20.13;;;1.60;99.90;;;;;;5091994;28;20128;-65
2022/12/11 12:55:41;;;;;;;37.78;20.45;;;1.60;99.90;;;;;;5074556;28;20413;-66
2022/12/11 12:58:24;;;;;;;40.78;21.77;;;1.70;99.90;;;;;;5090820;28;20494;-65
2022/12/11 13:00:50;;;;;;;39.97;21.10;;;1.60;99.90;;;;;;5090876;28;20044;-66
2022/12/11 13:03:19;;;;;;;38.00;21.15;;;1.60;99.90;;;;;;5090717;28;20443;-66